createdAt,value
2018-10-18T00:00:59.603Z,86.43
2018-10-18T00:04:05.113Z,85.56
2018-10-18T00:07:10.560Z,85.15
2018-10-18T00:10:16.330Z,84.87
2018-10-18T00:13:22.047Z,84.35
2018-10-18T00:16:27.632Z,84.43
2018-10-18T00:19:33.592Z,84.79
2018-10-18T00:22:39.127Z,84.54
2018-10-18T00:25:44.584Z,84.78
2018-10-18T00:28:50.076Z,84.91
2018-10-18T00:31:55.577Z,84.76
2018-10-18T00:35:01.207Z,84.46
2018-10-18T00:38:07.812Z,84.38
2018-10-18T00:41:13.481Z,84.17
2018-10-18T00:44:18.976Z,84.28
2018-10-18T00:47:25.951Z,84.24
2018-10-18T00:50:31.420Z,84.54
2018-10-18T00:53:37.032Z,85.42
2018-10-18T00:56:43.218Z,85.00
2018-10-18T00:59:48.698Z,85.46
2018-10-18T01:02:54.131Z,84.81
2018-10-18T01:06:00.491Z,84.39
2018-10-18T01:09:09.343Z,84.04
2018-10-18T01:12:14.795Z,83.93
2018-10-18T01:15:20.443Z,83.53
2018-10-18T01:18:25.893Z,84.65
2018-10-18T01:21:31.887Z,85.38
2018-10-18T01:24:37.852Z,85.33
2018-10-18T01:27:43.633Z,85.09
2018-10-18T01:30:49.109Z,84.30
2018-10-18T01:33:54.580Z,84.88
2018-10-18T01:37:00.399Z,84.45
2018-10-18T01:40:06.093Z,84.56
2018-10-18T01:43:11.796Z,84.35
2018-10-18T01:46:17.236Z,85.13
2018-10-18T01:49:22.675Z,85.96
2018-10-18T01:52:28.118Z,86.32
2018-10-18T01:55:33.580Z,86.49
2018-10-18T01:58:39.248Z,86.25
2018-10-18T02:01:44.688Z,86.37
2018-10-18T02:04:50.161Z,86.65
2018-10-18T02:07:55.942Z,86.43
2018-10-18T02:11:01.584Z,86.03
2018-10-18T02:14:07.348Z,86.15
2018-10-18T02:17:12.793Z,86.07
2018-10-18T02:20:18.247Z,86.23
2018-10-18T02:23:23.706Z,86.79
2018-10-18T02:26:29.233Z,86.75
2018-10-18T02:29:34.680Z,86.17
2018-10-18T02:32:40.355Z,86.54
2018-10-18T02:35:46.746Z,86.10
2018-10-18T02:38:52.196Z,86.00
2018-10-18T02:41:57.681Z,86.72
2018-10-18T02:45:04.327Z,86.37
2018-10-18T02:48:09.753Z,86.29
2018-10-18T02:51:15.459Z,86.24
2018-10-18T02:54:21.011Z,85.20
2018-10-18T02:57:26.572Z,85.24
2018-10-18T03:00:34.479Z,85.87
2018-10-18T03:03:39.941Z,85.66
2018-10-18T03:06:45.411Z,85.67
2018-10-18T03:09:50.837Z,85.78
2018-10-18T03:12:56.322Z,85.25
2018-10-18T03:16:01.875Z,85.57
2018-10-18T03:19:07.817Z,85.39
2018-10-18T03:22:13.287Z,85.20
2018-10-18T03:25:18.731Z,86.43
2018-10-18T03:28:24.204Z,85.61
2018-10-18T03:31:30.377Z,85.40
2018-10-18T03:34:35.795Z,85.03
2018-10-18T03:37:41.264Z,85.71
2018-10-18T03:40:46.719Z,84.66
2018-10-18T03:43:52.253Z,84.83
2018-10-18T03:46:57.808Z,84.95
2018-10-18T03:50:03.328Z,85.36
2018-10-18T03:53:08.757Z,85.14
2018-10-18T03:56:14.993Z,85.33
2018-10-18T03:59:27.049Z,85.53
2018-10-18T04:02:34.868Z,85.11
2018-10-18T04:05:40.868Z,85.00
2018-10-18T04:08:46.592Z,84.85
2018-10-18T04:11:52.071Z,85.24
2018-10-18T04:14:57.723Z,85.46
2018-10-18T04:18:03.281Z,85.38
2018-10-18T04:21:08.954Z,85.95
2018-10-18T04:24:14.531Z,85.33
2018-10-18T04:27:20.117Z,84.82
2018-10-18T04:30:25.660Z,84.64
2018-10-18T04:33:31.237Z,85.31
2018-10-18T04:36:36.752Z,85.05
2018-10-18T04:39:42.377Z,84.13
2018-10-18T04:42:47.827Z,84.69
2018-10-18T04:45:53.243Z,84.88
2018-10-18T04:48:58.807Z,85.11
2018-10-18T04:52:04.611Z,84.67
2018-10-18T04:55:10.114Z,84.78
2018-10-18T04:58:16.539Z,85.30
2018-10-18T05:01:22.557Z,84.78
2018-10-18T05:04:28.534Z,84.21
2018-10-18T05:07:34.018Z,84.33
2018-10-18T05:10:39.451Z,84.57
2018-10-18T05:13:45.032Z,84.03
2018-10-18T05:16:50.476Z,84.67
2018-10-18T05:19:55.967Z,84.33
2018-10-18T05:23:01.535Z,84.57
2018-10-18T05:26:08.147Z,84.97
2018-10-18T05:29:13.723Z,84.87
2018-10-18T05:32:19.195Z,84.77
2018-10-18T05:35:24.656Z,85.46
2018-10-18T05:38:30.708Z,85.36
2018-10-18T05:41:36.224Z,85.15
2018-10-18T05:44:41.676Z,85.54
2018-10-18T05:47:48.616Z,84.58
2018-10-18T05:50:54.163Z,84.87
2018-10-18T05:53:59.780Z,85.34
2018-10-18T05:57:06.304Z,86.71
2018-10-18T06:00:15.882Z,85.54
2018-10-18T06:03:21.571Z,85.21
2018-10-18T06:06:27.112Z,86.05
2018-10-18T06:09:33.974Z,85.78
2018-10-18T06:12:41.989Z,85.64
2018-10-18T06:15:47.440Z,85.34
2018-10-18T06:18:53.052Z,86.00
2018-10-18T06:21:59.270Z,84.69
2018-10-18T06:25:04.970Z,85.61
2018-10-18T06:28:10.644Z,84.68
2018-10-18T06:31:17.459Z,84.66
2018-10-18T06:34:22.905Z,84.21
2018-10-18T06:37:29.190Z,84.58
2018-10-18T06:40:34.932Z,84.21
2018-10-18T06:43:41.535Z,84.47
2018-10-18T06:46:47.005Z,83.96
2018-10-18T06:49:52.830Z,84.92
2018-10-18T06:52:59.463Z,84.65
2018-10-18T06:56:05.314Z,84.30
2018-10-18T06:59:10.804Z,84.68
2018-10-18T07:02:16.367Z,85.10
2018-10-18T07:05:21.882Z,84.65
2018-10-18T07:08:27.363Z,84.84
2018-10-18T07:11:32.915Z,83.82
2018-10-18T07:14:38.496Z,83.69
2018-10-18T07:17:44.545Z,83.90
2018-10-18T07:20:50.907Z,84.18
2018-10-18T07:23:56.384Z,84.86
2018-10-18T07:27:02.974Z,85.01
2018-10-18T07:30:20.034Z,83.64
2018-10-18T07:33:25.725Z,84.11
2018-10-18T07:36:31.206Z,83.87
2018-10-18T07:39:36.763Z,82.69
2018-10-18T07:42:45.508Z,83.10
2018-10-18T07:45:50.911Z,82.58
2018-10-18T07:48:56.361Z,82.98
2018-10-18T07:52:01.769Z,82.74
2018-10-18T07:55:09.240Z,81.85
2018-10-18T07:58:14.643Z,81.70
2018-10-18T08:01:20.076Z,81.33
2018-10-18T08:04:25.542Z,80.88
2018-10-18T08:07:30.948Z,79.52
2018-10-18T08:10:36.784Z,79.97
2018-10-18T08:13:42.218Z,79.82
2018-10-18T08:16:47.848Z,79.97
2018-10-18T08:19:53.557Z,79.71
2018-10-18T08:22:59.608Z,78.86
2018-10-18T08:26:05.041Z,78.59
2018-10-18T08:29:10.476Z,77.93
2018-10-18T08:32:15.897Z,78.91
2018-10-18T08:35:21.335Z,77.80
2018-10-18T08:38:26.805Z,78.18
2018-10-18T08:41:32.318Z,78.24
2018-10-18T08:44:38.149Z,78.69
2018-10-18T08:47:44.078Z,78.84
2018-10-18T08:50:50.225Z,78.24
2018-10-18T08:53:55.715Z,79.00
2018-10-18T08:57:01.164Z,78.88
2018-10-18T09:00:08.674Z,78.07
2018-10-18T09:03:14.108Z,77.85
2018-10-18T09:06:20.495Z,78.29
2018-10-18T09:09:25.918Z,77.47
2018-10-18T09:12:31.610Z,78.12
2018-10-18T09:15:37.072Z,77.78
2018-10-18T09:18:42.532Z,77.41
2018-10-18T09:21:47.984Z,77.34
2018-10-18T09:24:54.243Z,77.01
2018-10-18T09:27:59.703Z,77.22
2018-10-18T09:31:05.908Z,77.00
2018-10-18T09:34:11.485Z,77.78
2018-10-18T09:37:17.716Z,77.42
2018-10-18T09:40:23.310Z,77.75
2018-10-18T09:43:28.824Z,76.96
2018-10-18T09:46:35.391Z,77.35
2018-10-18T09:49:40.877Z,77.62
2018-10-18T09:52:46.425Z,77.05
2018-10-18T09:55:51.870Z,76.77
2018-10-18T09:58:57.498Z,76.58
2018-10-18T10:02:08.763Z,77.11
2018-10-18T10:05:14.221Z,77.63
2018-10-18T10:08:19.742Z,77.22
2018-10-18T10:11:25.914Z,77.46
2018-10-18T10:14:32.202Z,78.15
2018-10-18T10:17:38.249Z,78.11
2018-10-18T10:20:43.858Z,78.77
2018-10-18T10:23:49.699Z,79.12
2018-10-18T10:26:55.223Z,79.09
2018-10-18T10:30:00.659Z,79.29
2018-10-18T10:33:06.545Z,81.51
2018-10-18T10:36:12.136Z,81.81
2018-10-18T10:39:18.256Z,81.00
2018-10-18T10:42:24.296Z,81.70
2018-10-18T10:45:29.788Z,81.67
2018-10-18T10:48:35.447Z,82.47
2018-10-18T10:51:40.847Z,83.56
2018-10-18T10:54:46.327Z,84.00
2018-10-18T10:57:51.766Z,85.15
2018-10-18T11:01:08.896Z,84.54
2018-10-18T11:04:14.344Z,85.16
2018-10-18T11:07:20.045Z,85.07
2018-10-18T11:10:25.480Z,84.21
2018-10-18T11:13:31.277Z,84.70
2018-10-18T11:16:37.075Z,84.36
2018-10-18T11:19:42.607Z,83.95
2018-10-18T11:22:47.994Z,84.46
2018-10-18T11:25:53.622Z,84.29
2018-10-18T11:28:59.048Z,84.22
2018-10-18T11:32:04.535Z,84.04
2018-10-18T11:35:10.258Z,84.14
2018-10-18T11:38:16.067Z,84.24
2018-10-18T11:41:21.598Z,84.57
2018-10-18T11:44:32.156Z,84.37
2018-10-18T11:47:38.031Z,84.57
2018-10-18T11:50:43.818Z,84.28
2018-10-18T11:53:49.177Z,84.91
2018-10-18T11:56:55.006Z,84.05
2018-10-18T12:00:00.410Z,82.90
2018-10-18T12:03:06.648Z,82.93
2018-10-18T12:06:12.442Z,82.75
2018-10-18T12:09:17.799Z,82.34
2018-10-18T12:12:23.189Z,81.85
2018-10-18T12:15:28.581Z,82.61
2018-10-18T12:18:34.033Z,82.36
2018-10-18T12:21:40.371Z,81.77
2018-10-18T12:24:45.717Z,79.97
2018-10-18T12:27:51.098Z,79.61
2018-10-18T12:30:57.631Z,78.92
2018-10-18T12:34:03.562Z,79.29
2018-10-18T12:37:08.982Z,77.96
2018-10-18T12:40:14.538Z,77.48
2018-10-18T12:43:20.066Z,76.35
2018-10-18T12:46:25.714Z,75.42
2018-10-18T12:49:31.098Z,74.79
2018-10-18T12:52:36.510Z,74.55
2018-10-18T12:55:41.862Z,75.82
2018-10-18T12:58:47.271Z,74.68
2018-10-18T13:01:53.110Z,74.33
2018-10-18T13:04:58.678Z,74.17
2018-10-18T13:08:04.119Z,74.46
2018-10-18T13:11:09.869Z,73.28
2018-10-18T13:14:15.297Z,71.67
2018-10-18T13:17:20.862Z,70.38
2018-10-18T13:20:26.775Z,67.61
2018-10-18T13:23:45.188Z,65.69
2018-10-18T13:26:53.478Z,64.42
2018-10-18T13:29:59.053Z,63.70
2018-10-18T13:33:04.606Z,62.27
2018-10-18T13:36:10.021Z,61.98
2018-10-18T13:39:16.328Z,60.32
2018-10-18T13:42:21.875Z,55.93
2018-10-18T13:45:27.207Z,55.51
2018-10-18T13:48:32.558Z,55.88
2018-10-18T13:51:37.894Z,56.64
2018-10-18T13:54:43.342Z,56.08
2018-10-18T13:57:49.417Z,57.05
2018-10-18T14:00:54.804Z,57.07
2018-10-18T14:04:00.186Z,56.52
2018-10-18T14:07:05.555Z,57.58
2018-10-18T14:10:10.954Z,57.81
2018-10-18T14:13:16.378Z,58.07
2018-10-18T14:16:21.727Z,58.89
2018-10-18T14:19:27.113Z,59.34
2018-10-18T14:22:32.489Z,60.45
2018-10-18T14:25:37.879Z,59.47
2018-10-18T14:28:43.257Z,60.43
2018-10-18T14:31:48.641Z,61.28
2018-10-18T14:34:54.025Z,60.46
2018-10-18T14:37:59.660Z,60.58
2018-10-18T14:41:05.476Z,60.32
2018-10-18T14:44:11.144Z,60.16
2018-10-18T14:47:16.717Z,60.52
2018-10-18T14:50:22.406Z,58.95
2018-10-18T14:53:29.116Z,56.43
2018-10-18T14:56:36.823Z,56.65
2018-10-18T14:59:42.686Z,55.33
2018-10-18T15:02:48.090Z,55.98
2018-10-18T15:05:53.438Z,56.64
2018-10-18T15:08:58.810Z,57.18
2018-10-18T15:12:04.297Z,56.77
2018-10-18T15:15:10.889Z,57.14
2018-10-18T15:18:16.389Z,56.30
2018-10-18T15:21:22.334Z,57.37
2018-10-18T15:24:27.723Z,56.99
2018-10-18T15:27:34.535Z,57.14
2018-10-18T15:30:58.984Z,58.48
2018-10-18T15:34:04.995Z,56.12
2018-10-18T15:37:10.363Z,56.57
2018-10-18T15:40:16.150Z,56.35
2018-10-18T15:43:21.536Z,57.10
2018-10-18T15:46:27.514Z,57.20
2018-10-18T15:49:32.861Z,56.78
2018-10-18T15:52:38.284Z,57.38
2018-10-18T15:55:43.722Z,57.67
2018-10-18T15:58:49.106Z,57.57
2018-10-18T16:01:54.471Z,57.82
2018-10-18T16:04:59.998Z,57.59
2018-10-18T16:08:05.877Z,57.63
2018-10-18T16:11:11.401Z,58.06
2018-10-18T16:14:17.104Z,58.24
2018-10-18T16:17:22.589Z,58.79
2018-10-18T16:20:27.995Z,59.10
2018-10-18T16:23:33.727Z,59.32
2018-10-18T16:26:39.309Z,60.61
2018-10-18T16:29:44.829Z,59.21
2018-10-18T16:32:50.213Z,60.23
2018-10-18T16:35:55.617Z,60.63
2018-10-18T16:39:01.463Z,61.32
2018-10-18T16:42:07.180Z,61.44
2018-10-18T16:45:13.965Z,61.22
2018-10-18T16:48:19.558Z,61.25
2018-10-18T16:51:25.211Z,61.84
2018-10-18T16:54:30.806Z,61.49
2018-10-18T16:57:36.414Z,62.47
2018-10-18T17:00:41.795Z,62.17
2018-10-18T17:03:48.450Z,63.44
2018-10-18T17:06:53.877Z,63.62
2018-10-18T17:09:59.529Z,63.54
2018-10-18T17:13:05.701Z,63.61
2018-10-18T17:16:11.186Z,64.77
2018-10-18T17:19:16.784Z,64.31
2018-10-18T17:22:22.154Z,64.30
2018-10-18T17:25:27.926Z,65.30
2018-10-18T17:28:33.405Z,65.01
2018-10-18T17:31:38.771Z,65.36
2018-10-18T17:34:44.135Z,65.36
2018-10-18T17:37:49.646Z,65.84
2018-10-18T17:40:55.087Z,66.52
2018-10-18T17:44:00.484Z,66.97
2018-10-18T17:47:06.472Z,67.13
2018-10-18T17:50:12.830Z,67.97
2018-10-18T17:53:18.277Z,68.39
2018-10-18T17:56:23.630Z,68.64
2018-10-18T17:59:29.100Z,67.70
2018-10-18T18:02:34.462Z,68.07
2018-10-18T18:05:39.827Z,68.39
2018-10-18T18:08:45.240Z,68.30
2018-10-18T18:11:50.938Z,68.54
2018-10-18T18:14:56.369Z,69.44
2018-10-18T18:18:01.852Z,70.03
2018-10-18T18:21:07.487Z,70.37
2018-10-18T18:24:12.914Z,70.85
2018-10-18T18:27:18.328Z,70.63
2018-10-18T18:30:23.733Z,70.92
2018-10-18T18:33:29.083Z,70.80
2018-10-18T18:36:34.481Z,71.31
2018-10-18T18:39:39.933Z,71.55
2018-10-18T18:42:45.562Z,71.23
2018-10-18T18:45:50.929Z,71.09
2018-10-18T18:48:56.437Z,71.62
2018-10-18T18:52:02.155Z,71.72
2018-10-18T18:55:09.163Z,71.37
2018-10-18T18:58:14.558Z,71.23
2018-10-18T19:01:21.119Z,71.45
2018-10-18T19:04:28.709Z,71.62
2018-10-18T19:07:34.629Z,71.55
2018-10-18T19:10:40.218Z,71.43
2018-10-18T19:13:45.653Z,71.05
2018-10-18T19:16:51.026Z,71.11
2018-10-18T19:19:56.426Z,71.56
2018-10-18T19:23:01.849Z,71.43
2018-10-18T19:26:07.517Z,70.14
2018-10-18T19:29:13.332Z,71.20
2018-10-18T19:32:18.806Z,70.37
2018-10-18T19:35:24.283Z,70.27
2018-10-18T19:38:29.794Z,71.04
2018-10-18T19:41:35.338Z,70.53
2018-10-18T19:44:40.759Z,71.12
2018-10-18T19:47:46.127Z,71.30
2018-10-18T19:50:51.627Z,70.74
2018-10-18T19:53:57.778Z,71.25
2018-10-18T19:57:03.335Z,71.33
2018-10-18T20:00:10.061Z,71.65
2018-10-18T20:03:15.443Z,71.00
2018-10-18T20:06:21.626Z,71.32
2018-10-18T20:09:27.172Z,70.92
2018-10-18T20:12:33.346Z,71.04
2018-10-18T20:15:38.742Z,70.48
2018-10-18T20:18:44.314Z,70.83
2018-10-18T20:21:49.705Z,71.00
2018-10-18T20:24:55.348Z,71.41
2018-10-18T20:28:00.818Z,71.61
2018-10-18T20:31:07.109Z,71.91
2018-10-18T20:34:12.473Z,72.37
2018-10-18T20:37:17.949Z,72.45
2018-10-18T20:40:23.481Z,72.72
2018-10-18T20:43:28.862Z,73.05
2018-10-18T20:46:34.994Z,72.64
2018-10-18T20:49:40.566Z,71.95
2018-10-18T20:52:45.931Z,72.28
2018-10-18T20:55:51.334Z,73.31
2018-10-18T20:58:56.825Z,73.00
2018-10-18T21:02:02.215Z,73.29
2018-10-18T21:05:07.906Z,73.49
2018-10-18T21:08:13.369Z,73.10
2018-10-18T21:11:18.805Z,72.91
2018-10-18T21:14:24.197Z,72.93
2018-10-18T21:17:29.566Z,73.04
2018-10-18T21:20:34.943Z,73.12
2018-10-18T21:23:40.346Z,72.82
2018-10-18T21:26:45.725Z,73.25
2018-10-18T21:29:51.242Z,73.34
2018-10-18T21:32:56.677Z,74.10
2018-10-18T21:36:02.214Z,73.86
2018-10-18T21:39:08.622Z,73.82
2018-10-18T21:42:14.190Z,73.98
2018-10-18T21:45:19.727Z,74.10
2018-10-18T21:48:27.387Z,74.19
2018-10-18T21:51:32.714Z,74.41
2018-10-18T21:54:38.117Z,75.04
2018-10-18T21:57:43.479Z,75.18
2018-10-18T22:00:49.085Z,74.77
2018-10-18T22:03:54.436Z,74.94
2018-10-18T22:06:59.802Z,75.23
2018-10-18T22:10:06.124Z,74.92
2018-10-18T22:13:11.582Z,75.17
2018-10-18T22:16:16.963Z,75.11
2018-10-18T22:19:22.411Z,74.87
2018-10-18T22:22:27.766Z,75.22
2018-10-18T22:25:33.185Z,74.77
2018-10-18T22:28:38.602Z,75.58
2018-10-18T22:31:46.082Z,75.83
2018-10-18T22:34:51.442Z,76.08
2018-10-18T22:37:56.814Z,75.90
2018-10-18T22:41:02.324Z,76.07
2018-10-18T22:44:08.953Z,76.20
2018-10-18T22:47:14.531Z,76.53
2018-10-18T22:50:20.132Z,76.30
2018-10-18T22:53:25.503Z,75.88
2018-10-18T22:56:30.914Z,75.80
2018-10-18T22:59:38.542Z,76.46
2018-10-18T23:02:43.878Z,76.16
2018-10-18T23:05:49.606Z,76.75
2018-10-18T23:08:55.095Z,76.98
2018-10-18T23:12:00.647Z,76.68
2018-10-18T23:15:08.439Z,76.68
2018-10-18T23:18:14.048Z,76.47
2018-10-18T23:21:19.536Z,76.99
2018-10-18T23:24:24.926Z,76.85
2018-10-18T23:27:32.258Z,76.77
2018-10-18T23:30:37.787Z,76.81
2018-10-18T23:33:43.454Z,77.18
2018-10-18T23:36:48.831Z,77.29
2018-10-18T23:39:54.365Z,77.51
2018-10-18T23:42:59.727Z,77.88
2018-10-18T23:46:06.030Z,77.77
2018-10-18T23:49:11.414Z,77.86
2018-10-18T23:52:16.899Z,77.72
2018-10-18T23:55:22.258Z,77.28
2018-10-18T23:58:27.582Z,77.33
